createdAt,value
2022-11-24T09:22:56.492Z,4.80
2022-11-24T09:44:30.724Z,5.50
2022-11-24T09:55:48.381Z,5.10
2022-11-24T09:58:21.306Z,5.10
2022-11-24T10:00:49.333Z,5.00
2022-11-24T10:03:43.829Z,5.10
2022-11-24T10:13:12.969Z,5.20
2022-11-24T10:15:51.423Z,5.70
2022-11-24T10:21:51.405Z,5.30
2022-11-24T10:24:37.101Z,5.20
2022-11-24T10:27:21.895Z,5.30
2022-11-24T10:29:50.658Z,5.20
2022-11-24T10:32:40.887Z,5.30
2022-11-24T10:35:17.529Z,5.30
2022-11-24T10:38:17.881Z,5.30
2022-11-24T10:40:57.011Z,5.30
2022-11-24T10:43:29.033Z,5.30
2022-11-24T10:46:21.177Z,5.30
2022-11-24T10:48:53.516Z,5.30
2022-11-24T10:52:00.544Z,5.30
2022-11-24T10:54:27.463Z,5.20
2022-11-24T10:56:59.429Z,5.20
2022-11-24T10:59:48.444Z,5.20
2022-11-24T11:06:06.034Z,5.20
2022-11-24T11:12:54.978Z,6.10
2022-11-24T11:15:29.290Z,5.60
2022-11-24T11:18:04.694Z,5.40
2022-11-24T11:20:34.755Z,5.40
2022-11-24T11:23:03.897Z,5.40
2022-11-24T11:25:35.163Z,5.50
2022-11-24T11:28:31.862Z,5.40
2022-11-24T11:31:22.139Z,5.40
2022-11-24T11:34:23.735Z,5.50
2022-11-24T11:37:04.931Z,5.40
2022-11-24T11:39:48.898Z,5.50
2022-11-24T11:45:38.052Z,5.40
2022-11-24T11:48:05.058Z,5.50
2022-11-24T11:51:29.737Z,5.60
2022-11-24T11:54:16.241Z,5.60
2022-11-24T11:56:45.417Z,5.70
2022-11-24T11:59:21.464Z,5.80
2022-11-24T12:02:06.821Z,5.70
2022-11-24T12:04:52.670Z,5.70
2022-11-24T12:07:35.159Z,5.80
2022-11-24T12:10:32.554Z,5.80
2022-11-24T12:24:03.248Z,6.00
2022-11-24T12:26:52.852Z,6.00
2022-11-24T12:29:37.800Z,5.90
2022-11-24T12:32:27.247Z,5.90
2022-11-24T12:35:07.387Z,6.00
2022-11-24T12:38:38.975Z,5.90
2022-11-24T12:41:49.404Z,6.00
2022-11-24T12:44:29.809Z,6.70
2022-11-24T12:47:13.199Z,5.80
2022-11-24T12:50:20.806Z,5.80
2022-11-24T12:56:18.507Z,5.80
2022-11-24T12:59:14.089Z,5.80
2022-11-24T13:02:07.261Z,5.70
2022-11-24T13:08:29.897Z,5.70
2022-11-24T13:11:30.734Z,5.80
2022-11-24T13:20:48.651Z,5.50
2022-11-24T13:43:40.973Z,7.30
2022-11-24T13:49:09.567Z,5.40
2022-11-24T13:51:40.656Z,5.90
2022-11-24T13:54:21.871Z,5.80
2022-11-24T13:57:28.788Z,4.90
2022-11-24T14:00:25.029Z,6.30
2022-11-24T14:09:25.870Z,5.40
2022-11-24T14:28:35.539Z,5.70
2022-11-24T14:34:35.750Z,5.60
2022-11-24T14:49:11.440Z,5.90
2022-11-24T14:51:46.951Z,5.10
2022-11-24T14:57:35.760Z,5.10
2022-11-24T15:00:33.202Z,4.90
2022-11-24T15:03:17.652Z,5.00
2022-11-24T15:06:08.328Z,5.00
2022-11-24T15:11:29.064Z,5.30
2022-11-24T15:13:58.065Z,5.40
2022-11-24T15:16:28.711Z,4.80
2022-11-24T15:19:01.142Z,4.70
2022-11-24T15:21:41.082Z,4.90
2022-11-24T15:24:17.378Z,6.20
2022-11-24T15:26:57.172Z,4.60
2022-11-24T15:29:40.829Z,4.90
2022-11-24T15:32:23.343Z,4.70
2022-11-24T15:35:01.230Z,4.90
2022-11-24T15:44:18.915Z,4.70
2022-11-24T15:53:04.798Z,4.20
2022-11-24T15:56:09.139Z,5.00
2022-11-24T16:17:04.893Z,3.90
2022-11-24T16:26:14.757Z,3.20
2022-11-24T16:32:06.352Z,3.10
2022-11-24T16:34:43.030Z,3.40
2022-11-24T16:53:11.665Z,2.70
2022-11-24T16:56:14.241Z,2.70
2022-11-24T17:02:08.917Z,2.70
2022-11-24T17:05:40.916Z,1.60
2022-11-24T17:08:45.913Z,3.50
2022-11-24T17:11:28.247Z,2.60
2022-11-24T17:14:03.112Z,2.80
2022-11-24T17:19:44.242Z,2.40
2022-11-24T17:22:14.071Z,1.60
2022-11-24T17:24:57.951Z,2.40
2022-11-24T17:30:13.068Z,2.40
2022-11-24T18:47:02.126Z,2.20
2022-11-24T18:56:13.881Z,2.00
2022-11-24T19:10:51.034Z,1.90
2022-11-24T19:14:10.027Z,2.10
2022-11-24T19:41:30.159Z,1.80
2022-11-24T20:40:21.784Z,1.30
